createdAt,value
2017-12-22T00:02:22.060Z,4.24
2017-12-22T00:04:49.525Z,4.37
2017-12-22T00:07:16.983Z,4.35
2017-12-22T00:09:44.440Z,4.31
2017-12-22T00:12:12.124Z,4.31
2017-12-22T00:14:39.619Z,4.24
2017-12-22T00:17:08.116Z,4.32
2017-12-22T00:19:35.575Z,4.33
2017-12-22T00:22:03.075Z,4.40
2017-12-22T00:24:30.519Z,4.41
2017-12-22T00:26:57.976Z,4.37
2017-12-22T00:29:25.988Z,4.47
2017-12-22T00:31:53.432Z,4.43
2017-12-22T00:34:20.879Z,4.48
2017-12-22T00:36:48.360Z,4.49
2017-12-22T00:39:15.957Z,4.47
2017-12-22T00:41:43.539Z,4.46
2017-12-22T00:44:11.002Z,4.46
2017-12-22T00:46:38.454Z,4.49
2017-12-22T00:49:05.967Z,4.45
2017-12-22T00:51:33.466Z,4.45
2017-12-22T00:54:00.974Z,4.51
2017-12-22T00:56:28.638Z,4.57
2017-12-22T00:58:56.152Z,4.61
2017-12-22T01:01:23.657Z,4.68
2017-12-22T01:03:51.111Z,4.65
2017-12-22T01:06:18.576Z,4.78
2017-12-22T01:08:46.115Z,4.79
2017-12-22T01:11:13.580Z,4.67
2017-12-22T01:13:41.036Z,4.66
2017-12-22T01:19:19.171Z,4.79
2017-12-22T01:21:46.615Z,4.97
2017-12-22T01:24:14.085Z,4.94
2017-12-22T01:26:41.569Z,4.91
2017-12-22T01:29:09.025Z,4.96
2017-12-22T01:31:36.483Z,5.03
2017-12-22T01:34:03.964Z,5.07
2017-12-22T01:36:31.411Z,5.12
2017-12-22T01:38:58.888Z,5.12
2017-12-22T01:41:26.353Z,5.10
2017-12-22T01:43:53.844Z,5.14
2017-12-22T01:46:21.296Z,5.11
2017-12-22T01:48:49.010Z,5.06
2017-12-22T01:51:16.515Z,4.96
2017-12-22T01:53:43.962Z,4.92
2017-12-22T01:56:11.427Z,4.86
2017-12-22T01:58:38.949Z,4.89
2017-12-22T02:01:06.418Z,5.01
2017-12-22T02:03:33.994Z,4.96
2017-12-22T02:06:01.409Z,5.07
2017-12-22T02:08:28.867Z,5.11
2017-12-22T02:10:56.330Z,5.09
2017-12-22T02:13:23.779Z,5.06
2017-12-22T02:15:51.230Z,5.10
2017-12-22T02:18:18.718Z,5.22
2017-12-22T02:20:46.182Z,5.19
2017-12-22T02:23:13.684Z,5.25
2017-12-22T02:25:41.123Z,5.29
2017-12-22T02:28:08.577Z,5.18
2017-12-22T02:30:36.044Z,5.18
2017-12-22T02:33:03.496Z,5.23
2017-12-22T02:35:30.975Z,5.31
2017-12-22T02:37:58.431Z,5.48
2017-12-22T02:40:25.925Z,5.42
2017-12-22T02:42:53.406Z,5.37
2017-12-22T02:45:20.860Z,5.34
2017-12-22T02:47:48.975Z,5.46
2017-12-22T02:50:16.487Z,5.44
2017-12-22T02:52:43.953Z,5.35
2017-12-22T02:55:11.412Z,5.46
2017-12-22T02:57:38.870Z,5.54
2017-12-22T03:00:06.332Z,5.47
2017-12-22T03:02:33.987Z,5.38
2017-12-22T03:05:01.444Z,5.45
2017-12-22T03:07:28.901Z,5.60
2017-12-22T03:09:56.383Z,5.51
2017-12-22T03:12:24.000Z,5.56
2017-12-22T03:14:51.474Z,5.59
2017-12-22T03:17:18.930Z,5.69
2017-12-22T03:19:46.430Z,5.72
2017-12-22T03:22:13.926Z,5.74
2017-12-22T03:24:41.596Z,5.65
2017-12-22T03:27:09.055Z,5.75
2017-12-22T03:29:36.491Z,5.64
2017-12-22T03:32:03.980Z,5.69
2017-12-22T03:34:31.459Z,5.64
2017-12-22T03:36:58.911Z,5.65
2017-12-22T03:39:26.376Z,5.71
2017-12-22T03:41:53.829Z,5.76
2017-12-22T03:44:21.283Z,5.83
2017-12-22T03:46:48.740Z,5.81
2017-12-22T03:49:16.221Z,5.70
2017-12-22T03:51:43.666Z,5.88
2017-12-22T03:54:11.124Z,5.81
2017-12-22T03:56:38.571Z,5.81
2017-12-22T03:59:06.024Z,5.88
2017-12-22T04:01:33.498Z,5.86
2017-12-22T04:04:00.944Z,5.77
2017-12-22T04:06:28.392Z,5.77
2017-12-22T04:08:55.842Z,5.96
2017-12-22T04:11:23.288Z,5.82
2017-12-22T04:13:50.740Z,5.83
2017-12-22T04:16:18.217Z,5.85
2017-12-22T04:18:45.703Z,5.77
2017-12-22T04:21:13.197Z,5.93
2017-12-22T04:23:40.669Z,5.91
2017-12-22T04:26:08.110Z,5.87
2017-12-22T04:28:35.645Z,5.82
2017-12-22T04:31:03.095Z,5.85
2017-12-22T04:33:30.576Z,5.80
2017-12-22T04:35:58.043Z,5.77
2017-12-22T04:38:26.386Z,5.87
2017-12-22T04:40:53.848Z,5.86
2017-12-22T04:43:21.351Z,5.85
2017-12-22T04:45:48.795Z,6.15
2017-12-22T04:48:16.256Z,6.15
2017-12-22T04:50:43.757Z,6.20
2017-12-22T04:53:11.247Z,6.16
2017-12-22T04:55:38.706Z,6.05
2017-12-22T04:58:06.156Z,6.18
2017-12-22T05:00:33.594Z,6.10
2017-12-22T05:03:01.048Z,6.14
2017-12-22T05:05:28.495Z,6.14
2017-12-22T05:07:55.969Z,6.07
2017-12-22T05:10:23.416Z,6.08
2017-12-22T05:12:50.859Z,6.12
2017-12-22T05:15:18.383Z,6.06
2017-12-22T05:17:45.850Z,6.07
2017-12-22T05:20:13.356Z,6.07
2017-12-22T05:22:40.816Z,6.11
2017-12-22T05:25:08.265Z,6.11
2017-12-22T05:27:35.908Z,6.09
2017-12-22T05:30:03.379Z,6.11
2017-12-22T05:32:31.230Z,6.09
2017-12-22T05:34:58.706Z,6.11
2017-12-22T05:37:26.147Z,6.10
2017-12-22T05:39:53.584Z,6.20
2017-12-22T05:42:21.079Z,6.10
2017-12-22T05:44:48.545Z,6.05
2017-12-22T05:47:16.132Z,6.09
2017-12-22T05:49:43.609Z,6.09
2017-12-22T05:52:11.119Z,6.08
2017-12-22T05:54:39.208Z,6.06
2017-12-22T05:57:06.683Z,6.09
2017-12-22T05:59:34.130Z,6.17
2017-12-22T06:02:01.678Z,6.16
2017-12-22T06:04:29.513Z,6.17
2017-12-22T06:06:56.979Z,6.18
2017-12-22T06:09:24.461Z,6.13
2017-12-22T06:11:51.970Z,6.21
2017-12-22T06:14:19.429Z,6.24
2017-12-22T06:16:46.888Z,6.22
2017-12-22T06:19:14.375Z,6.24
2017-12-22T06:21:41.882Z,6.18
2017-12-22T06:24:09.429Z,6.18
2017-12-22T06:26:37.219Z,6.31
2017-12-22T06:29:04.862Z,6.24
2017-12-22T06:31:32.388Z,6.25
2017-12-22T06:33:59.858Z,6.26
2017-12-22T06:36:28.020Z,6.26
2017-12-22T06:38:55.471Z,6.26
2017-12-22T06:41:24.362Z,6.29
2017-12-22T06:43:52.091Z,6.27
2017-12-22T06:46:19.612Z,6.30
2017-12-22T06:48:48.744Z,6.30
2017-12-22T06:51:16.620Z,6.30
2017-12-22T06:53:44.071Z,6.32
2017-12-22T06:56:11.774Z,6.37
2017-12-22T06:58:40.533Z,6.42
2017-12-22T07:01:08.178Z,6.38
2017-12-22T07:03:35.682Z,6.47
2017-12-22T07:06:03.179Z,6.46
2017-12-22T07:08:33.127Z,6.48
2017-12-22T07:11:00.591Z,6.54
2017-12-22T07:13:28.133Z,6.61
2017-12-22T07:15:55.615Z,6.52
2017-12-22T07:18:23.227Z,6.51
2017-12-22T07:20:50.817Z,6.62
2017-12-22T07:23:18.676Z,6.63
2017-12-22T07:25:46.729Z,6.58
2017-12-22T07:28:14.275Z,6.65
2017-12-22T07:30:41.783Z,6.60
2017-12-22T07:33:09.317Z,6.58
2017-12-22T07:35:36.800Z,6.67
2017-12-22T07:38:04.308Z,6.79
2017-12-22T07:40:31.844Z,6.82
2017-12-22T07:42:59.404Z,6.77
2017-12-22T07:45:26.952Z,6.67
2017-12-22T07:47:56.589Z,6.72
2017-12-22T07:50:24.108Z,6.70
2017-12-22T07:52:51.590Z,6.75
2017-12-22T07:55:19.210Z,6.75
2017-12-22T07:57:46.810Z,6.75
2017-12-22T08:00:14.444Z,6.82
2017-12-22T08:02:41.924Z,6.88
2017-12-22T08:05:09.612Z,6.88
2017-12-22T08:07:38.229Z,6.98
2017-12-22T08:10:06.894Z,6.97
2017-12-22T08:12:34.517Z,6.91
2017-12-22T08:15:02.004Z,6.97
2017-12-22T08:17:35.354Z,6.99
2017-12-22T08:20:15.955Z,7.06
2017-12-22T08:35:40.612Z,7.30
2017-12-22T08:38:08.433Z,7.34
2017-12-22T08:40:36.754Z,7.28
2017-12-22T08:43:04.249Z,7.32
2017-12-22T08:45:31.997Z,7.49
2017-12-22T08:48:00.058Z,7.53
2017-12-22T08:50:27.717Z,7.44
2017-12-22T08:52:55.360Z,7.67
2017-12-22T08:55:22.868Z,7.63
2017-12-22T08:57:50.383Z,7.62
2017-12-22T09:00:17.853Z,7.64
2017-12-22T09:02:45.378Z,7.50
2017-12-22T09:05:13.050Z,7.57
2017-12-22T09:07:40.610Z,7.61
2017-12-22T09:10:08.240Z,7.57
2017-12-22T09:12:36.294Z,7.65
2017-12-22T09:15:03.818Z,7.66
2017-12-22T09:17:31.301Z,7.73
2017-12-22T09:19:58.836Z,7.83
2017-12-22T09:22:27.094Z,7.86
2017-12-22T09:24:54.759Z,7.86
2017-12-22T09:27:22.297Z,7.97
2017-12-22T09:29:49.776Z,7.99
2017-12-22T09:32:18.381Z,8.14
2017-12-22T09:34:46.782Z,8.22
2017-12-22T09:37:14.243Z,8.25
2017-12-22T09:39:41.727Z,8.22
2017-12-22T09:42:09.191Z,8.19
2017-12-22T09:44:36.959Z,7.97
2017-12-22T09:47:04.687Z,8.04
2017-12-22T09:49:32.203Z,8.07
2017-12-22T09:52:00.828Z,8.20
2017-12-22T09:54:28.876Z,8.15
2017-12-22T09:56:56.392Z,8.12
2017-12-22T09:59:24.632Z,8.14
2017-12-22T10:01:52.122Z,8.31
2017-12-22T10:04:23.073Z,8.21
2017-12-22T10:06:50.552Z,8.26
2017-12-22T10:09:18.147Z,8.39
2017-12-22T10:11:45.617Z,8.37
2017-12-22T10:14:13.266Z,8.42
2017-12-22T10:16:43.441Z,8.49
2017-12-22T10:19:15.686Z,8.51
2017-12-22T10:21:43.515Z,8.56
2017-12-22T10:24:13.191Z,8.48
2017-12-22T10:26:40.708Z,8.36
2017-12-22T10:29:08.167Z,8.34
2017-12-22T10:31:40.313Z,8.45
2017-12-22T10:34:07.779Z,8.48
2017-12-22T10:36:35.247Z,8.51
2017-12-22T10:39:02.796Z,8.59
2017-12-22T10:41:30.457Z,8.61
2017-12-22T10:43:57.920Z,8.69
2017-12-22T10:46:25.376Z,8.81
2017-12-22T10:48:52.896Z,8.73
2017-12-22T10:51:20.456Z,8.72
2017-12-22T10:53:47.917Z,8.73
2017-12-22T10:56:15.412Z,8.70
2017-12-22T10:58:42.927Z,8.82
2017-12-22T11:01:10.754Z,8.86
2017-12-22T11:03:38.274Z,8.85
2017-12-22T11:06:05.796Z,9.07
2017-12-22T11:08:33.807Z,9.10
2017-12-22T11:11:01.381Z,9.09
2017-12-22T11:13:29.114Z,9.16
2017-12-22T11:15:56.621Z,9.11
2017-12-22T11:18:24.613Z,9.32
2017-12-22T11:20:52.135Z,9.25
2017-12-22T11:23:19.943Z,9.30
2017-12-22T11:25:47.460Z,9.29
2017-12-22T11:28:15.723Z,9.32
2017-12-22T11:30:44.522Z,9.29
2017-12-22T11:33:12.095Z,9.52
2017-12-22T11:35:40.325Z,9.39
2017-12-22T11:38:07.827Z,9.12
2017-12-22T11:40:35.326Z,9.16
2017-12-22T11:43:02.900Z,9.06
2017-12-22T11:45:30.464Z,9.08
2017-12-22T11:47:57.940Z,9.16
2017-12-22T11:50:25.419Z,9.14
2017-12-22T11:52:52.965Z,9.07
2017-12-22T11:55:20.440Z,9.20
2017-12-22T11:57:48.048Z,9.34
2017-12-22T12:00:15.550Z,9.22
2017-12-22T12:02:43.027Z,9.14
2017-12-22T12:05:10.549Z,8.97
2017-12-22T12:07:38.016Z,9.01
2017-12-22T12:10:05.561Z,9.09
2017-12-22T12:12:33.134Z,9.30
2017-12-22T12:15:00.598Z,9.30
2017-12-22T12:17:28.072Z,9.17
2017-12-22T12:19:55.575Z,9.09
2017-12-22T12:22:23.067Z,9.13
2017-12-22T12:24:50.538Z,9.23
2017-12-22T12:27:18.025Z,9.29
2017-12-22T12:29:45.982Z,9.16
2017-12-22T12:32:13.478Z,9.15
2017-12-22T12:34:41.087Z,9.14
2017-12-22T12:37:08.559Z,8.94
2017-12-22T12:39:36.039Z,8.97
2017-12-22T12:42:03.510Z,8.82
2017-12-22T12:44:31.339Z,8.78
2017-12-22T12:46:58.934Z,8.92
2017-12-22T12:49:26.587Z,8.91
2017-12-22T12:51:55.303Z,8.75
2017-12-22T12:54:22.983Z,8.92
2017-12-22T12:56:50.569Z,8.98
2017-12-22T12:59:18.032Z,8.97
2017-12-22T13:01:45.582Z,9.04
2017-12-22T13:04:13.226Z,9.02
2017-12-22T13:06:40.997Z,8.95
2017-12-22T13:09:08.566Z,8.91
2017-12-22T13:11:36.043Z,8.85
2017-12-22T13:14:03.501Z,8.87
2017-12-22T13:16:31.262Z,8.77
2017-12-22T13:18:58.717Z,8.83
2017-12-22T13:21:26.180Z,8.96
2017-12-22T13:23:53.710Z,8.98
2017-12-22T13:26:21.192Z,8.93
2017-12-22T13:28:48.672Z,9.01
2017-12-22T13:31:16.174Z,9.07
2017-12-22T13:33:43.656Z,9.31
2017-12-22T13:36:11.132Z,9.00
2017-12-22T13:38:38.616Z,9.00
2017-12-22T13:41:06.130Z,8.88
2017-12-22T13:43:33.798Z,8.82
2017-12-22T13:46:01.287Z,8.82
2017-12-22T13:48:28.839Z,8.75
2017-12-22T13:50:56.403Z,8.75
2017-12-22T13:53:23.966Z,8.78
2017-12-22T13:55:51.429Z,8.68
2017-12-22T13:58:18.936Z,8.73
2017-12-22T14:00:47.031Z,8.75
2017-12-22T14:03:15.401Z,8.68
2017-12-22T14:05:43.799Z,8.61
2017-12-22T14:08:11.344Z,8.51
2017-12-22T14:10:40.097Z,8.37
2017-12-22T14:13:08.092Z,8.32
2017-12-22T14:15:35.780Z,8.30
2017-12-22T14:18:04.596Z,8.20
2017-12-22T14:20:32.154Z,8.25
2017-12-22T14:22:59.668Z,8.44
2017-12-22T14:25:27.210Z,8.30
2017-12-22T14:27:54.703Z,8.37
2017-12-22T14:30:22.208Z,8.12
2017-12-22T14:32:49.694Z,8.05
2017-12-22T14:35:17.217Z,8.13
2017-12-22T14:37:45.675Z,8.07
2017-12-22T14:40:14.209Z,7.89
2017-12-22T14:42:42.797Z,7.96
2017-12-22T14:45:10.374Z,8.01
2017-12-22T14:47:38.752Z,8.01
2017-12-22T14:50:06.238Z,7.90
2017-12-22T14:52:34.174Z,7.81
2017-12-22T14:55:01.770Z,7.75
2017-12-22T14:57:29.239Z,7.67
2017-12-22T14:59:56.825Z,7.65
2017-12-22T15:02:24.358Z,7.63
2017-12-22T15:04:51.945Z,7.51
2017-12-22T15:07:19.489Z,7.57
2017-12-22T15:09:47.108Z,7.47
2017-12-22T15:12:14.816Z,7.42
2017-12-22T15:14:42.351Z,7.45
2017-12-22T15:17:09.934Z,7.43
2017-12-22T15:19:37.486Z,7.39
2017-12-22T15:22:04.959Z,7.50
2017-12-22T15:24:32.647Z,7.37
2017-12-22T15:27:00.193Z,7.36
2017-12-22T15:29:27.655Z,7.31
2017-12-22T15:31:55.188Z,7.31
2017-12-22T15:34:22.702Z,7.19
2017-12-22T15:36:50.443Z,7.32
2017-12-22T15:39:17.926Z,7.26
2017-12-22T15:41:46.835Z,7.19
2017-12-22T15:44:16.692Z,7.26
2017-12-22T15:58:42.687Z,7.42
2017-12-22T16:01:11.076Z,7.40
2017-12-22T16:03:40.572Z,7.38
2017-12-22T16:09:08.461Z,7.36
2017-12-22T16:11:36.692Z,7.46
2017-12-22T16:14:04.255Z,7.46
2017-12-22T16:16:31.744Z,7.36
2017-12-22T16:18:59.232Z,7.34
2017-12-22T16:21:26.753Z,7.34
2017-12-22T16:23:54.249Z,7.30
2017-12-22T16:26:21.803Z,7.22
2017-12-22T16:28:49.343Z,7.12
2017-12-22T16:31:16.894Z,7.10
2017-12-22T16:33:46.505Z,7.06
2017-12-22T16:36:14.034Z,7.07
2017-12-22T16:38:41.635Z,7.08
2017-12-22T16:41:09.368Z,7.09
2017-12-22T16:43:37.224Z,6.98
2017-12-22T16:46:04.750Z,6.94
2017-12-22T16:48:32.260Z,7.04
2017-12-22T17:02:51.965Z,6.98
2017-12-22T17:08:07.951Z,7.08
2017-12-22T17:10:35.472Z,7.16
2017-12-22T17:13:02.957Z,7.22
2017-12-22T17:15:32.492Z,7.19
2017-12-22T17:17:59.970Z,7.31
2017-12-22T17:20:27.485Z,7.25
2017-12-22T17:22:54.983Z,7.28
2017-12-22T17:25:22.500Z,7.28
2017-12-22T17:27:49.988Z,7.36
2017-12-22T17:30:17.475Z,7.34
2017-12-22T17:32:44.960Z,7.27
2017-12-22T17:35:13.380Z,7.29
2017-12-22T17:37:40.872Z,7.35
2017-12-22T17:40:08.383Z,7.37
2017-12-22T17:42:35.919Z,7.34
2017-12-22T17:45:03.411Z,7.37
2017-12-22T17:47:30.949Z,7.34
2017-12-22T17:49:58.477Z,7.36
2017-12-22T17:52:26.233Z,7.42
2017-12-22T17:54:53.737Z,7.61
2017-12-22T17:57:21.278Z,7.59
2017-12-22T17:59:48.813Z,7.59
2017-12-22T18:02:16.424Z,7.65
2017-12-22T18:04:43.943Z,7.64
2017-12-22T18:07:11.497Z,7.57
2017-12-22T18:09:39.078Z,7.49
2017-12-22T18:12:06.616Z,7.53
2017-12-22T18:14:34.104Z,7.54
2017-12-22T18:17:01.658Z,7.56
2017-12-22T18:19:29.180Z,7.50
2017-12-22T18:21:56.681Z,7.53
2017-12-22T18:24:27.200Z,7.58
2017-12-22T18:26:54.713Z,7.65
2017-12-22T18:29:22.232Z,7.68
2017-12-22T18:31:49.853Z,7.71
2017-12-22T18:34:17.720Z,7.73
2017-12-22T18:36:46.272Z,7.74
2017-12-22T18:39:14.287Z,7.77
2017-12-22T18:41:42.167Z,7.72
2017-12-22T18:44:09.756Z,7.73
2017-12-22T18:49:34.254Z,7.78
2017-12-22T18:52:01.817Z,7.79
2017-12-22T18:54:29.492Z,7.77
2017-12-22T18:56:57.181Z,7.81
2017-12-22T18:59:24.765Z,7.80
2017-12-22T19:01:53.491Z,7.86
2017-12-22T19:04:24.957Z,7.86
2017-12-22T19:06:52.800Z,7.98
2017-12-22T19:09:21.859Z,8.06
2017-12-22T19:11:49.470Z,7.88
2017-12-22T19:14:17.966Z,7.99
2017-12-22T19:16:47.056Z,7.96
2017-12-22T19:19:14.985Z,7.95
2017-12-22T19:21:42.923Z,7.91
2017-12-22T19:24:10.445Z,7.97
2017-12-22T19:26:39.845Z,7.84
2017-12-22T19:29:07.337Z,7.91
2017-12-22T19:31:34.841Z,7.90
2017-12-22T19:34:02.354Z,7.93
2017-12-22T19:36:30.844Z,7.96
2017-12-22T19:38:58.984Z,8.04
2017-12-22T19:41:26.500Z,7.96
2017-12-22T19:43:55.101Z,7.92
2017-12-22T19:46:23.926Z,7.96
2017-12-22T19:48:51.416Z,7.96
2017-12-22T19:51:19.054Z,8.03
2017-12-22T19:53:47.389Z,7.97
2017-12-22T19:56:15.492Z,7.82
2017-12-22T19:58:44.166Z,7.79
2017-12-22T20:01:11.763Z,7.83
2017-12-22T20:03:39.414Z,7.79
2017-12-22T20:06:07.043Z,7.75
2017-12-22T20:08:34.975Z,7.79
2017-12-22T20:11:02.511Z,7.80
2017-12-22T20:13:30.219Z,7.81
2017-12-22T20:15:57.932Z,7.75
2017-12-22T20:18:26.441Z,7.77
2017-12-22T20:20:56.639Z,7.81
2017-12-22T20:23:24.272Z,7.76
2017-12-22T20:25:51.897Z,7.69
2017-12-22T20:28:20.350Z,7.75
2017-12-22T20:30:47.888Z,7.72
2017-12-22T20:33:15.843Z,7.73
2017-12-22T20:41:36.552Z,7.66
2017-12-22T20:44:04.790Z,7.61
2017-12-22T20:52:21.706Z,7.65
2017-12-22T20:54:49.229Z,7.61
2017-12-22T20:57:16.836Z,7.67
2017-12-22T20:59:44.396Z,7.66
2017-12-22T21:02:12.032Z,7.71
2017-12-22T21:04:39.556Z,7.69
2017-12-22T21:07:07.129Z,7.66
2017-12-22T21:09:34.640Z,7.67
2017-12-22T21:12:02.116Z,7.68
2017-12-22T21:14:30.830Z,7.68
2017-12-22T21:16:58.308Z,7.76
2017-12-22T21:19:25.805Z,7.74
2017-12-22T21:21:53.363Z,7.82
2017-12-22T21:30:26.342Z,7.79
2017-12-22T21:33:10.360Z,7.87
2017-12-22T21:35:37.888Z,7.94
2017-12-22T21:44:10.524Z,7.95
2017-12-22T21:46:45.496Z,7.95
2017-12-22T21:49:14.903Z,8.01
2017-12-22T21:51:42.824Z,8.00
2017-12-22T21:54:10.651Z,8.03
2017-12-22T21:56:43.881Z,7.99
2017-12-22T21:59:12.547Z,8.02
2017-12-22T22:01:40.576Z,8.03
2017-12-22T22:04:09.481Z,8.02
2017-12-22T22:06:37.032Z,8.07
2017-12-22T22:09:04.555Z,8.05
2017-12-22T22:11:32.322Z,7.99
2017-12-22T22:14:00.165Z,7.96
2017-12-22T22:16:28.360Z,7.99
2017-12-22T22:18:55.928Z,7.98
2017-12-22T22:21:32.062Z,8.05
2017-12-22T22:23:59.572Z,7.94
2017-12-22T22:26:27.041Z,7.92
2017-12-22T22:28:54.823Z,7.89
2017-12-22T22:31:22.364Z,7.79
2017-12-22T22:33:49.850Z,7.87
2017-12-22T22:36:17.334Z,7.84
2017-12-22T22:38:44.809Z,7.84
2017-12-22T22:41:12.336Z,7.84
2017-12-22T22:43:39.834Z,7.78
2017-12-22T22:46:07.294Z,7.78
2017-12-22T22:48:34.880Z,7.71
2017-12-22T22:51:02.369Z,7.64
2017-12-22T22:53:29.918Z,7.52
2017-12-22T22:55:57.773Z,7.50
2017-12-22T22:58:25.300Z,7.42
2017-12-22T23:00:52.825Z,7.49
2017-12-22T23:03:20.361Z,7.58
2017-12-22T23:05:47.847Z,7.68
2017-12-22T23:08:15.582Z,7.65
2017-12-22T23:10:43.463Z,7.62
2017-12-22T23:13:10.971Z,7.60
2017-12-22T23:15:39.858Z,7.57
2017-12-22T23:18:07.337Z,7.65
2017-12-22T23:20:35.968Z,7.59
2017-12-22T23:23:03.481Z,7.57
2017-12-22T23:25:31.009Z,7.60
2017-12-22T23:27:58.568Z,7.52
2017-12-22T23:30:26.491Z,7.58
2017-12-22T23:32:54.002Z,7.62
2017-12-22T23:35:21.830Z,7.57
2017-12-22T23:37:49.411Z,7.63
2017-12-22T23:40:17.008Z,7.58
2017-12-22T23:42:44.518Z,7.63
2017-12-22T23:45:12.174Z,7.62
2017-12-22T23:47:39.667Z,7.59
2017-12-22T23:50:07.172Z,7.66
2017-12-22T23:52:34.672Z,7.55
2017-12-22T23:55:02.285Z,7.49
2017-12-22T23:57:29.814Z,7.50
2017-12-22T23:59:57.440Z,7.52
